createdAt,value
2023-05-05T00:00:14.277Z,59.84
2023-05-05T00:01:14.300Z,59.80
2023-05-05T00:02:14.326Z,57.32
2023-05-05T00:03:14.375Z,57.03
2023-05-05T00:04:14.298Z,57.22
2023-05-05T00:05:14.236Z,59.02
2023-05-05T00:06:14.249Z,59.51
2023-05-05T00:07:14.215Z,59.47
2023-05-05T00:08:14.245Z,59.84
2023-05-05T00:09:14.225Z,57.10
2023-05-05T00:10:14.223Z,58.91
2023-05-05T00:11:14.231Z,57.47
2023-05-05T00:12:14.196Z,58.10
2023-05-05T00:13:14.197Z,58.75
2023-05-05T00:14:14.231Z,58.44
2023-05-05T00:15:14.195Z,58.48
2023-05-05T00:16:14.191Z,57.86
2023-05-05T00:17:14.246Z,61.10
2023-05-05T00:18:14.159Z,57.99
2023-05-05T00:19:14.182Z,57.41
2023-05-05T00:20:14.155Z,58.28
2023-05-05T00:21:14.146Z,57.21
2023-05-05T00:22:14.227Z,56.56
2023-05-05T00:23:14.141Z,58.12
2023-05-05T00:24:14.161Z,58.27
2023-05-05T00:25:14.147Z,59.16
2023-05-05T00:26:14.164Z,58.23
2023-05-05T00:27:14.105Z,60.57
2023-05-05T00:28:14.159Z,58.66
2023-05-05T00:29:14.095Z,60.65
2023-05-05T00:30:14.148Z,57.87
2023-05-05T00:31:14.137Z,58.87
2023-05-05T00:32:14.094Z,58.71
2023-05-05T00:33:14.062Z,58.74
2023-05-05T00:34:14.088Z,58.12
2023-05-05T00:35:14.072Z,59.37
2023-05-05T00:36:14.077Z,57.22
2023-05-05T00:37:14.081Z,59.67
2023-05-05T00:38:14.126Z,58.27
2023-05-05T00:39:14.031Z,58.10
2023-05-05T00:40:14.055Z,57.82
2023-05-05T00:41:14.038Z,57.73
2023-05-05T00:42:14.193Z,58.73
2023-05-05T00:43:14.015Z,58.43
2023-05-05T00:44:14.054Z,58.23
2023-05-05T00:45:14.010Z,57.68
2023-05-05T00:46:14.043Z,61.82
2023-05-05T00:47:14.018Z,61.77
2023-05-05T00:48:14.029Z,60.38
2023-05-05T00:49:14.007Z,60.19
2023-05-05T00:50:14.002Z,60.47
2023-05-05T00:51:14.019Z,59.93
2023-05-05T00:52:14.006Z,58.27
2023-05-05T00:53:13.976Z,61.18
2023-05-05T00:54:14.002Z,58.44
2023-05-05T00:55:13.955Z,60.39
2023-05-05T00:56:13.963Z,60.29
2023-05-05T00:57:13.965Z,60.73
2023-05-05T00:58:13.951Z,60.13
2023-05-05T00:59:13.951Z,60.63
2023-05-05T01:00:13.970Z,60.97
2023-05-05T01:01:13.947Z,60.55
2023-05-05T01:02:13.963Z,60.59
2023-05-05T01:03:13.978Z,58.54
2023-05-05T01:04:13.929Z,58.43
2023-05-05T01:05:13.918Z,57.38
2023-05-05T01:06:13.906Z,56.59
2023-05-05T01:07:13.887Z,59.81
2023-05-05T01:08:13.933Z,59.30
2023-05-05T01:09:13.879Z,60.20
2023-05-05T01:10:20.135Z,60.21
2023-05-05T01:11:14.904Z,58.31
2023-05-05T01:12:13.893Z,60.34
2023-05-05T01:13:13.974Z,59.54
2023-05-05T01:14:13.863Z,58.66
2023-05-05T01:15:13.872Z,58.79
2023-05-05T01:16:13.909Z,57.46
2023-05-05T01:17:13.853Z,58.77
2023-05-05T01:18:13.849Z,57.96
2023-05-05T01:19:13.816Z,60.00
2023-05-05T01:20:13.860Z,61.12
2023-05-05T01:21:13.821Z,60.51
2023-05-05T01:22:13.873Z,55.92
2023-05-05T01:23:13.804Z,60.22
2023-05-05T01:24:13.819Z,59.93
2023-05-05T01:25:13.791Z,61.10
2023-05-05T01:26:13.824Z,60.60
2023-05-05T01:27:13.776Z,60.38
2023-05-05T01:28:13.835Z,61.86
2023-05-05T01:29:13.769Z,60.78
2023-05-05T01:30:13.787Z,60.80
2023-05-05T01:31:13.804Z,59.70
2023-05-05T01:32:13.770Z,61.69
2023-05-05T01:33:13.776Z,56.25
2023-05-05T01:34:13.758Z,59.95
2023-05-05T01:35:13.742Z,60.47
2023-05-05T01:36:13.767Z,59.42
2023-05-05T01:37:13.729Z,59.80
2023-05-05T01:38:13.777Z,59.17
2023-05-05T01:39:13.718Z,57.56
2023-05-05T01:40:13.720Z,58.11
2023-05-05T01:41:13.704Z,59.23
2023-05-05T01:42:13.719Z,59.54
2023-05-05T01:43:13.727Z,62.70
2023-05-05T01:44:13.696Z,60.21
2023-05-05T01:45:13.718Z,59.16
2023-05-05T01:46:13.798Z,57.69
2023-05-05T01:47:13.666Z,56.84
2023-05-05T01:48:13.759Z,57.70
2023-05-05T01:49:13.678Z,58.69
2023-05-05T01:50:13.699Z,58.62
2023-05-05T01:51:13.657Z,57.95
2023-05-05T01:52:13.657Z,56.64
2023-05-05T01:53:13.651Z,58.89
2023-05-05T01:54:13.650Z,58.81
2023-05-05T01:55:13.631Z,59.55
2023-05-05T01:56:13.668Z,60.58
2023-05-05T01:57:13.625Z,57.51
2023-05-05T01:58:13.628Z,58.83
2023-05-05T01:59:13.606Z,58.13
2023-05-05T02:00:13.689Z,58.51
2023-05-05T02:01:13.615Z,59.88
2023-05-05T02:02:13.653Z,61.97
2023-05-05T02:03:13.730Z,60.79
2023-05-05T02:04:13.591Z,62.06
2023-05-05T02:05:13.596Z,62.95
2023-05-05T02:06:13.576Z,60.46
2023-05-05T02:07:13.553Z,57.75
2023-05-05T02:08:13.604Z,59.05
2023-05-05T02:09:13.579Z,58.68
2023-05-05T02:10:13.564Z,58.16
2023-05-05T02:11:13.532Z,59.52
2023-05-05T02:12:13.547Z,57.84
2023-05-05T02:13:13.635Z,60.12
2023-05-05T02:14:13.579Z,61.09
2023-05-05T02:15:13.505Z,59.39
2023-05-05T02:16:13.575Z,60.87
2023-05-05T02:17:13.518Z,58.28
2023-05-05T02:18:13.537Z,58.62
2023-05-05T02:19:13.499Z,58.71
2023-05-05T02:20:13.531Z,60.27
2023-05-05T02:21:13.487Z,57.26
2023-05-05T02:22:13.503Z,60.54
2023-05-05T02:23:13.465Z,58.05
2023-05-05T02:24:13.557Z,60.12
2023-05-05T02:25:13.485Z,61.14
2023-05-05T02:26:13.476Z,61.59
2023-05-05T02:27:13.457Z,61.80
2023-05-05T02:28:13.495Z,61.98
2023-05-05T02:29:13.439Z,61.89
2023-05-05T02:30:13.466Z,61.45
2023-05-05T02:31:13.449Z,58.78
2023-05-05T02:32:13.466Z,60.04
2023-05-05T02:33:13.420Z,60.07
2023-05-05T02:34:13.516Z,60.02
2023-05-05T02:35:13.430Z,61.71
2023-05-05T02:36:13.415Z,61.76
2023-05-05T02:37:13.445Z,61.57
2023-05-05T02:38:13.429Z,60.10
2023-05-05T02:39:13.382Z,59.30
2023-05-05T02:40:13.393Z,60.99
2023-05-05T02:41:13.397Z,62.56
2023-05-05T02:42:13.395Z,63.42
2023-05-05T02:43:13.450Z,60.42
2023-05-05T02:44:13.386Z,63.27
2023-05-05T02:45:13.364Z,61.46
2023-05-05T02:46:13.402Z,60.82
2023-05-05T02:47:13.375Z,61.70
2023-05-05T02:48:13.344Z,61.20
2023-05-05T02:49:13.325Z,61.19
2023-05-05T02:50:13.354Z,60.44
2023-05-05T02:51:13.329Z,61.84
2023-05-05T02:52:13.352Z,62.45
2023-05-05T02:53:13.349Z,63.06
2023-05-05T02:54:13.323Z,61.28
2023-05-05T02:55:13.306Z,61.30
2023-05-05T02:56:13.309Z,63.44
2023-05-05T02:57:13.280Z,63.33
2023-05-05T02:58:13.295Z,64.21
2023-05-05T02:59:15.865Z,64.13
2023-05-05T03:00:13.324Z,62.79
2023-05-05T03:01:13.312Z,64.08
2023-05-05T03:02:13.305Z,63.62
2023-05-05T03:03:13.367Z,64.42
2023-05-05T03:04:13.291Z,64.32
2023-05-05T03:05:13.270Z,62.62
2023-05-05T03:06:13.259Z,63.07
2023-05-05T03:07:13.230Z,62.66
2023-05-05T03:08:13.277Z,63.96
2023-05-05T03:09:13.220Z,64.12
2023-05-05T03:10:13.270Z,65.77
2023-05-05T03:11:13.220Z,65.75
2023-05-05T03:12:13.242Z,65.91
2023-05-05T03:13:13.248Z,65.68
2023-05-05T03:14:13.245Z,65.74
2023-05-05T03:15:13.191Z,64.04
2023-05-05T03:16:13.258Z,62.88
2023-05-05T03:17:13.209Z,63.69
2023-05-05T03:18:13.236Z,65.84
2023-05-05T03:19:13.199Z,63.08
2023-05-05T03:20:13.215Z,63.67
2023-05-05T03:21:13.164Z,64.22
2023-05-05T03:22:13.187Z,63.58
2023-05-05T03:23:13.207Z,61.43
2023-05-05T03:24:13.178Z,62.96
2023-05-05T03:25:13.135Z,63.35
2023-05-05T03:26:13.159Z,62.44
2023-05-05T03:27:13.131Z,63.76
2023-05-05T03:28:13.169Z,64.42
2023-05-05T03:29:13.148Z,63.24
2023-05-05T03:30:13.122Z,63.50
2023-05-05T03:31:13.126Z,63.13
2023-05-05T03:32:13.159Z,64.25
2023-05-05T03:33:13.085Z,64.18
2023-05-05T03:34:13.100Z,64.48
2023-05-05T03:35:13.088Z,64.43
2023-05-05T03:36:13.158Z,64.86
2023-05-05T03:37:13.067Z,65.05
2023-05-05T03:38:13.122Z,64.44
2023-05-05T03:39:13.064Z,64.03
2023-05-05T03:40:13.090Z,62.89
2023-05-05T03:41:13.051Z,64.30
2023-05-05T03:42:13.098Z,65.01
2023-05-05T03:43:13.071Z,65.08
2023-05-05T03:44:13.066Z,65.11
2023-05-05T03:45:13.031Z,65.67
2023-05-05T03:46:13.140Z,64.62
2023-05-05T03:47:13.029Z,65.74
2023-05-05T03:48:13.070Z,67.05
2023-05-05T03:49:13.018Z,65.49
2023-05-05T03:50:13.025Z,65.57
2023-05-05T03:51:12.995Z,64.64
2023-05-05T03:52:14.957Z,64.41
2023-05-05T03:53:12.972Z,65.14
2023-05-05T03:54:13.042Z,66.00
2023-05-05T03:55:12.973Z,64.61
2023-05-05T03:56:12.990Z,65.19
2023-05-05T03:57:12.962Z,65.41
2023-05-05T03:58:12.972Z,65.33
2023-05-05T03:59:12.968Z,65.23
2023-05-05T04:00:12.958Z,64.60
2023-05-05T04:01:12.981Z,65.15
2023-05-05T04:02:12.979Z,65.76
2023-05-05T04:03:13.128Z,64.40
2023-05-05T04:04:13.047Z,64.26
2023-05-05T04:05:12.901Z,64.77
2023-05-05T04:06:12.937Z,63.33
2023-05-05T04:07:12.901Z,65.18
2023-05-05T04:08:12.921Z,65.58
2023-05-05T04:09:12.911Z,63.76
2023-05-05T04:10:12.902Z,64.68
2023-05-05T04:11:12.920Z,62.97
2023-05-05T04:12:12.887Z,64.88
2023-05-05T04:13:12.895Z,65.26
2023-05-05T04:14:12.931Z,65.38
2023-05-05T04:15:12.850Z,65.93
2023-05-05T04:16:12.925Z,65.60
2023-05-05T04:17:12.850Z,66.08
2023-05-05T04:18:12.851Z,66.04
2023-05-05T04:19:12.868Z,67.04
2023-05-05T04:20:12.858Z,64.97
2023-05-05T04:21:12.826Z,66.14
2023-05-05T04:22:12.832Z,65.64
2023-05-05T04:23:12.832Z,67.25
2023-05-05T04:24:12.856Z,66.49
2023-05-05T04:25:12.813Z,66.03
2023-05-05T04:26:12.817Z,65.77
2023-05-05T04:27:12.821Z,66.25
2023-05-05T04:28:12.802Z,65.68
2023-05-05T04:29:12.807Z,64.41
2023-05-05T04:30:12.795Z,65.13
2023-05-05T04:31:12.807Z,65.44
2023-05-05T04:32:12.770Z,64.26
2023-05-05T04:33:12.762Z,64.42
2023-05-05T04:34:12.804Z,64.33
2023-05-05T04:35:12.744Z,64.42
2023-05-05T04:36:12.760Z,63.53
2023-05-05T04:37:12.741Z,63.86
2023-05-05T04:38:12.735Z,64.09
2023-05-05T04:39:12.726Z,63.21
2023-05-05T04:40:12.762Z,61.92
2023-05-05T04:41:12.714Z,62.40
2023-05-05T04:42:12.742Z,63.74
2023-05-05T04:43:12.703Z,63.76
2023-05-05T04:44:12.713Z,63.92
2023-05-05T04:45:12.721Z,64.96
2023-05-05T04:46:12.738Z,64.83
2023-05-05T04:47:14.537Z,64.42
2023-05-05T04:48:12.761Z,64.21
2023-05-05T04:49:12.694Z,65.17
2023-05-05T04:50:12.724Z,63.76
2023-05-05T04:51:12.730Z,64.24
2023-05-05T04:52:12.702Z,63.24
2023-05-05T04:53:12.651Z,62.28
2023-05-05T04:54:12.652Z,62.25
2023-05-05T04:55:12.649Z,62.45
2023-05-05T04:56:12.653Z,62.68
2023-05-05T04:57:12.621Z,63.06
2023-05-05T04:58:12.633Z,61.33
2023-05-05T04:59:12.637Z,62.47
2023-05-05T05:00:12.651Z,62.66
2023-05-05T05:01:12.642Z,64.59
2023-05-05T05:02:12.719Z,65.77
2023-05-05T05:03:12.680Z,63.62
2023-05-05T05:04:12.618Z,62.26
2023-05-05T05:05:12.606Z,62.02
2023-05-05T05:06:12.601Z,62.12
2023-05-05T05:07:12.579Z,61.94
2023-05-05T05:08:12.564Z,61.14
2023-05-05T05:09:12.565Z,62.97
2023-05-05T05:10:12.577Z,61.04
2023-05-05T05:11:12.550Z,61.36
2023-05-05T05:12:12.540Z,60.62
2023-05-05T05:13:13.087Z,59.96
2023-05-05T05:14:12.534Z,61.87
2023-05-05T05:15:12.500Z,62.50
2023-05-05T05:16:12.545Z,62.69
2023-05-05T05:17:12.488Z,63.37
2023-05-05T05:18:12.513Z,63.00
2023-05-05T05:19:12.542Z,64.46
2023-05-05T05:20:12.498Z,62.97
2023-05-05T05:21:12.469Z,63.98
2023-05-05T05:22:12.501Z,64.76
2023-05-05T05:23:12.452Z,62.79
2023-05-05T05:24:12.493Z,64.21
2023-05-05T05:25:12.484Z,63.63
2023-05-05T05:26:12.461Z,62.70
2023-05-05T05:27:12.437Z,62.67
2023-05-05T05:28:12.477Z,62.23
2023-05-05T05:29:12.448Z,62.34
2023-05-05T05:30:12.443Z,64.33
2023-05-05T05:31:12.429Z,64.19
2023-05-05T05:32:12.476Z,64.65
2023-05-05T05:33:12.440Z,65.21
2023-05-05T05:34:12.970Z,63.81
2023-05-05T05:35:12.385Z,62.43
2023-05-05T05:36:12.434Z,62.45
2023-05-05T05:37:12.395Z,63.72
2023-05-05T05:38:12.383Z,61.85
2023-05-05T05:39:12.363Z,61.08
2023-05-05T05:40:12.395Z,62.94
2023-05-05T05:41:12.346Z,60.63
2023-05-05T05:42:12.375Z,61.52
2023-05-05T05:43:12.329Z,60.17
2023-05-05T05:44:12.340Z,60.65
2023-05-05T05:45:12.336Z,60.50
2023-05-05T05:46:12.339Z,60.21
2023-05-05T05:47:12.291Z,59.97
2023-05-05T05:48:12.333Z,60.66
2023-05-05T05:49:12.284Z,61.07
2023-05-05T05:50:12.290Z,60.39
2023-05-05T05:51:12.294Z,61.22
2023-05-05T05:52:12.294Z,60.96
2023-05-05T05:53:12.257Z,60.98
2023-05-05T05:54:12.267Z,60.57
2023-05-05T05:55:12.264Z,60.24
2023-05-05T05:56:12.296Z,60.11
2023-05-05T05:57:12.243Z,61.43
2023-05-05T05:58:12.230Z,60.74
2023-05-05T05:59:12.237Z,60.26
2023-05-05T06:00:12.206Z,58.91
2023-05-05T06:01:12.207Z,61.33
2023-05-05T06:02:12.252Z,59.66
2023-05-05T06:03:12.431Z,58.74
2023-05-05T06:04:12.230Z,59.01
2023-05-05T06:05:12.181Z,59.23
2023-05-05T06:06:12.163Z,61.56
2023-05-05T06:07:12.158Z,61.57
2023-05-05T06:08:12.187Z,61.12
2023-05-05T06:09:12.129Z,60.46
2023-05-05T06:10:26.653Z,61.14
2023-05-05T06:11:13.121Z,59.50
2023-05-05T06:12:12.121Z,60.63
2023-05-05T06:13:12.177Z,61.01
2023-05-05T06:14:12.141Z,60.06
2023-05-05T06:15:12.083Z,58.92
2023-05-05T06:16:12.183Z,58.90
2023-05-05T06:17:12.069Z,60.00
2023-05-05T06:18:12.135Z,58.77
2023-05-05T06:19:12.052Z,58.18
2023-05-05T06:20:12.080Z,58.32
2023-05-05T06:21:12.038Z,59.60
2023-05-05T06:22:12.044Z,59.72
2023-05-05T06:23:12.005Z,59.09
2023-05-05T06:24:12.010Z,57.58
2023-05-05T06:25:11.993Z,58.55
2023-05-05T06:26:12.017Z,59.33
2023-05-05T06:27:12.004Z,57.84
2023-05-05T06:28:12.013Z,59.05
2023-05-05T06:29:12.453Z,59.19
2023-05-05T06:30:11.984Z,58.38
2023-05-05T06:31:11.993Z,57.94
2023-05-05T06:32:11.950Z,58.97
2023-05-05T06:33:11.951Z,57.71
2023-05-05T06:34:11.943Z,57.94
2023-05-05T06:35:11.916Z,59.86
2023-05-05T06:36:12.023Z,57.68
2023-05-05T06:37:11.900Z,58.59
2023-05-05T06:38:11.907Z,58.82
2023-05-05T06:39:12.670Z,56.20
2023-05-05T06:40:11.898Z,58.99
2023-05-05T06:41:11.908Z,58.21
2023-05-05T06:42:11.879Z,58.54
2023-05-05T06:43:11.867Z,58.43
2023-05-05T06:44:11.878Z,58.77
2023-05-05T06:45:11.837Z,57.64
2023-05-05T06:46:11.897Z,59.67
2023-05-05T06:47:11.825Z,57.91
2023-05-05T06:48:11.937Z,57.65
2023-05-05T06:49:11.808Z,57.83
2023-05-05T06:50:11.844Z,56.99
2023-05-05T06:51:11.815Z,56.79
2023-05-05T06:52:11.821Z,57.01
2023-05-05T06:53:11.776Z,57.35
2023-05-05T06:54:11.799Z,58.59
2023-05-05T06:55:11.792Z,58.25
2023-05-05T06:56:11.891Z,59.62
2023-05-05T06:57:11.773Z,58.85
2023-05-05T06:58:11.757Z,58.23
2023-05-05T06:59:11.743Z,57.72
2023-05-05T07:00:11.751Z,59.23
2023-05-05T07:01:11.766Z,58.26
2023-05-05T07:02:11.732Z,58.29
2023-05-05T07:03:11.897Z,57.17
2023-05-05T07:04:11.911Z,59.47
2023-05-05T07:05:11.714Z,58.74
2023-05-05T07:06:11.714Z,57.78
2023-05-05T07:07:11.680Z,57.66
2023-05-05T07:08:11.710Z,58.02
2023-05-05T07:09:11.663Z,58.04
2023-05-05T07:10:11.691Z,58.32
2023-05-05T07:11:11.663Z,57.60
2023-05-05T07:12:11.696Z,57.50
2023-05-05T07:13:11.797Z,57.65
2023-05-05T07:14:11.679Z,57.99
2023-05-05T07:15:26.116Z,56.95
2023-05-05T07:16:12.660Z,57.85
2023-05-05T07:17:11.759Z,57.73
2023-05-05T07:18:12.604Z,57.70
2023-05-05T07:19:11.606Z,57.98
2023-05-05T07:20:11.745Z,58.12
2023-05-05T07:21:11.622Z,57.00
2023-05-05T07:22:11.614Z,57.01
2023-05-05T07:23:11.571Z,57.62
2023-05-05T07:24:11.587Z,57.96
2023-05-05T07:25:11.560Z,57.48
2023-05-05T07:26:11.590Z,57.66
2023-05-05T07:27:11.564Z,57.57
2023-05-05T07:28:11.573Z,56.63
2023-05-05T07:29:11.687Z,56.59
2023-05-05T07:30:14.738Z,57.99
2023-05-05T07:31:12.518Z,57.41
2023-05-05T07:32:11.543Z,56.31
2023-05-05T07:33:11.547Z,55.36
2023-05-05T07:34:11.554Z,56.47
2023-05-05T07:35:11.522Z,56.89
2023-05-05T07:36:11.575Z,57.21
2023-05-05T07:37:11.474Z,56.51
2023-05-05T07:38:11.489Z,56.60
2023-05-05T07:39:11.475Z,56.78
2023-05-05T07:40:11.663Z,55.45
2023-05-05T07:41:11.454Z,54.08
2023-05-05T07:42:11.463Z,54.89
2023-05-05T07:43:11.452Z,54.00
2023-05-05T07:44:11.446Z,54.21
2023-05-05T07:45:11.431Z,53.05
2023-05-05T07:46:11.497Z,54.66
2023-05-05T07:47:11.399Z,54.91
2023-05-05T07:48:11.438Z,56.07
2023-05-05T07:49:11.440Z,55.09
2023-05-05T07:50:11.665Z,55.29
2023-05-05T07:51:11.381Z,55.92
2023-05-05T07:52:11.563Z,56.47
2023-05-05T07:53:14.756Z,56.27
2023-05-05T07:54:11.375Z,55.67
2023-05-05T07:55:11.372Z,55.87
2023-05-05T07:56:11.356Z,54.86
2023-05-05T07:57:11.360Z,54.64
2023-05-05T07:58:11.344Z,54.32
2023-05-05T07:59:11.333Z,56.02
2023-05-05T08:00:11.614Z,57.41
2023-05-05T08:01:11.349Z,56.46
2023-05-05T08:02:11.369Z,55.92
2023-05-05T08:03:12.130Z,55.84
2023-05-05T08:04:11.414Z,56.63
2023-05-05T08:05:11.474Z,54.98
2023-05-05T08:06:11.316Z,56.12
2023-05-05T08:07:11.265Z,56.41
2023-05-05T08:08:11.346Z,55.95
2023-05-05T08:09:11.251Z,56.45
2023-05-05T08:10:11.315Z,56.77
2023-05-05T08:11:11.244Z,58.13
2023-05-05T08:12:11.273Z,55.89
2023-05-05T08:13:11.256Z,56.19
2023-05-05T08:14:11.240Z,55.76
2023-05-05T08:15:11.429Z,56.75
2023-05-05T08:16:11.296Z,57.09
2023-05-05T08:17:11.237Z,56.90
2023-05-05T08:18:11.213Z,56.86
2023-05-05T08:19:25.095Z,56.69
2023-05-05T08:20:12.212Z,57.48
2023-05-05T08:21:11.170Z,57.53
2023-05-05T08:22:11.196Z,57.97
2023-05-05T08:23:11.170Z,57.31
2023-05-05T08:24:11.289Z,56.60
2023-05-05T08:25:11.185Z,56.83
2023-05-05T08:26:11.176Z,58.54
2023-05-05T08:27:11.140Z,57.39
2023-05-05T08:28:11.147Z,57.60
2023-05-05T08:29:11.127Z,56.72
2023-05-05T08:30:11.183Z,57.72
2023-05-05T08:31:11.153Z,56.63
2023-05-05T08:32:11.140Z,57.26
2023-05-05T08:33:11.165Z,56.37
2023-05-05T08:34:11.103Z,56.51
2023-05-05T08:35:11.345Z,56.58
2023-05-05T08:36:11.115Z,56.39
2023-05-05T08:37:11.081Z,56.23
2023-05-05T08:38:11.083Z,57.20
2023-05-05T08:39:11.098Z,55.23
2023-05-05T08:40:11.121Z,56.14
2023-05-05T08:41:11.032Z,56.11
2023-05-05T08:42:11.048Z,56.44
2023-05-05T08:43:11.036Z,56.18
2023-05-05T08:44:11.036Z,55.28
2023-05-05T08:45:11.516Z,56.25
2023-05-05T08:46:11.017Z,57.32
2023-05-05T08:47:11.192Z,56.10
2023-05-05T08:48:11.013Z,56.75
2023-05-05T08:49:10.992Z,56.49
2023-05-05T08:50:11.034Z,55.53
2023-05-05T08:51:10.961Z,56.19
2023-05-05T08:52:11.010Z,55.24
2023-05-05T08:53:10.955Z,55.53
2023-05-05T08:54:10.951Z,55.30
2023-05-05T08:55:10.958Z,55.74
2023-05-05T08:56:11.032Z,56.11
2023-05-05T08:57:10.915Z,57.40
2023-05-05T08:58:10.931Z,56.96
2023-05-05T08:59:10.907Z,55.14
2023-05-05T09:00:10.956Z,54.71
2023-05-05T09:01:10.984Z,56.63
2023-05-05T09:02:10.914Z,57.03
2023-05-05T09:03:10.952Z,55.68
2023-05-05T09:04:10.913Z,57.34
2023-05-05T09:05:11.124Z,57.70
2023-05-05T09:06:10.893Z,56.81
2023-05-05T09:07:10.855Z,56.70
2023-05-05T09:08:10.892Z,56.58
2023-05-05T09:09:10.842Z,56.69
2023-05-05T09:10:10.847Z,55.21
2023-05-05T09:11:10.822Z,56.46
2023-05-05T09:12:10.952Z,56.90
2023-05-05T09:13:10.942Z,56.13
2023-05-05T09:14:10.844Z,56.62
2023-05-05T09:15:10.919Z,57.17
2023-05-05T09:16:10.864Z,56.83
2023-05-05T09:17:10.826Z,56.53
2023-05-05T09:18:10.939Z,56.13
2023-05-05T09:19:10.777Z,58.41
2023-05-05T09:20:10.816Z,57.20
2023-05-05T09:21:10.762Z,57.50
2023-05-05T09:22:10.821Z,57.13
2023-05-05T09:23:10.750Z,56.61
2023-05-05T09:24:10.759Z,55.76
2023-05-05T09:25:10.757Z,56.43
2023-05-05T09:26:10.745Z,56.85
2023-05-05T09:27:10.720Z,55.05
2023-05-05T09:28:10.888Z,56.13
2023-05-05T09:29:10.708Z,54.75
2023-05-05T09:30:10.734Z,56.32
2023-05-05T09:31:10.711Z,55.89
2023-05-05T09:32:10.745Z,55.61
2023-05-05T09:33:10.697Z,56.16
2023-05-05T09:34:10.683Z,54.71
2023-05-05T09:35:10.658Z,56.87
2023-05-05T09:36:10.668Z,56.72
2023-05-05T09:37:10.669Z,56.39
2023-05-05T09:38:10.653Z,57.01
2023-05-05T09:39:10.628Z,56.20
2023-05-05T09:40:10.637Z,57.37
2023-05-05T09:41:10.625Z,56.13
2023-05-05T09:42:10.621Z,57.71
2023-05-05T09:43:10.628Z,57.44
2023-05-05T09:44:10.650Z,58.84
2023-05-05T09:45:10.595Z,56.42
2023-05-05T09:46:10.613Z,57.59
2023-05-05T09:47:26.076Z,58.91
2023-05-05T09:48:11.635Z,56.11
2023-05-05T09:49:10.582Z,57.37
2023-05-05T09:50:10.670Z,57.96
2023-05-05T09:51:10.558Z,57.96
2023-05-05T09:52:10.584Z,58.23
2023-05-05T09:53:10.543Z,56.65
2023-05-05T09:54:10.549Z,57.29
2023-05-05T09:55:10.561Z,56.50
2023-05-05T09:56:10.552Z,54.88
2023-05-05T09:57:10.510Z,57.13
2023-05-05T09:58:10.576Z,56.75
2023-05-05T09:59:10.510Z,57.07
2023-05-05T10:00:10.867Z,56.79
2023-05-05T10:01:10.557Z,56.15
2023-05-05T10:02:10.491Z,56.65
2023-05-05T10:03:10.498Z,56.38
2023-05-05T10:04:10.477Z,55.36
2023-05-05T10:05:10.526Z,56.13
2023-05-05T10:06:10.474Z,56.01
2023-05-05T10:07:10.444Z,55.96
2023-05-05T10:08:10.445Z,56.18
2023-05-05T10:09:10.421Z,55.63
2023-05-05T10:10:10.584Z,54.92
2023-05-05T10:11:10.417Z,55.83
2023-05-05T10:12:10.442Z,55.33
2023-05-05T10:13:10.409Z,55.09
2023-05-05T10:14:10.433Z,57.89
2023-05-05T10:15:10.416Z,56.01
2023-05-05T10:16:10.567Z,56.19
2023-05-05T10:17:10.360Z,56.70
2023-05-05T10:18:10.389Z,57.09
2023-05-05T10:19:10.357Z,55.98
2023-05-05T10:20:10.522Z,57.47
2023-05-05T10:21:10.351Z,56.71
2023-05-05T10:22:10.352Z,57.25
2023-05-05T10:23:10.351Z,57.90
2023-05-05T10:24:10.330Z,57.08
2023-05-05T10:25:10.315Z,57.56
2023-05-05T10:26:10.367Z,58.30
2023-05-05T10:27:12.105Z,57.44
2023-05-05T10:28:10.307Z,54.82
2023-05-05T10:29:10.308Z,56.76
2023-05-05T10:30:10.479Z,56.91
2023-05-05T10:31:20.401Z,57.06
2023-05-05T10:32:33.487Z,56.43
2023-05-05T10:33:30.159Z,58.58
2023-05-05T10:34:11.359Z,55.20
2023-05-05T10:35:10.277Z,56.62
2023-05-05T10:36:10.259Z,56.55
2023-05-05T10:37:10.266Z,56.92
2023-05-05T10:38:10.272Z,56.23
2023-05-05T10:39:10.221Z,55.72
2023-05-05T10:40:10.469Z,57.65
2023-05-05T10:41:10.206Z,58.38
2023-05-05T10:42:10.217Z,57.23
2023-05-05T10:43:10.223Z,56.60
2023-05-05T10:44:10.206Z,57.09
2023-05-05T10:45:10.255Z,57.11
2023-05-05T10:46:10.231Z,56.49
2023-05-05T10:47:10.162Z,56.03
2023-05-05T10:48:10.373Z,56.70
2023-05-05T10:49:12.489Z,56.49
2023-05-05T10:50:10.403Z,59.43
2023-05-05T10:51:10.144Z,59.54
2023-05-05T10:52:10.156Z,59.57
2023-05-05T10:53:10.175Z,59.28
2023-05-05T10:54:10.257Z,60.36
2023-05-05T10:55:10.116Z,60.73
2023-05-05T10:56:10.119Z,59.82
2023-05-05T10:57:10.105Z,60.05
2023-05-05T10:58:10.145Z,59.42
2023-05-05T10:59:10.115Z,59.84
2023-05-05T11:00:10.256Z,59.16
2023-05-05T11:01:10.097Z,59.24
2023-05-05T11:02:10.101Z,59.70
2023-05-05T11:03:10.108Z,60.11
2023-05-05T11:04:10.103Z,59.83
2023-05-05T11:05:10.075Z,59.78
2023-05-05T11:06:10.059Z,57.93
2023-05-05T11:07:14.300Z,54.72
2023-05-05T11:08:10.046Z,54.41
2023-05-05T11:09:10.046Z,56.68
2023-05-05T11:10:10.265Z,60.58
2023-05-05T11:11:10.004Z,54.74
2023-05-05T11:12:10.008Z,53.80
2023-05-05T11:13:10.031Z,53.90
2023-05-05T11:14:09.987Z,55.06
2023-05-05T11:15:09.976Z,55.38
2023-05-05T11:16:10.010Z,56.70
2023-05-05T11:17:10.041Z,55.06
2023-05-05T11:18:10.000Z,55.20
2023-05-05T11:19:09.955Z,55.17
2023-05-05T11:20:10.228Z,56.48
2023-05-05T11:21:09.954Z,56.89
2023-05-05T11:22:09.976Z,55.41
2023-05-05T11:23:09.960Z,56.10
2023-05-05T11:24:09.943Z,58.19
2023-05-05T11:25:09.915Z,55.80
2023-05-05T11:26:09.960Z,54.93
2023-05-05T11:27:09.905Z,54.78
2023-05-05T11:28:09.910Z,56.32
2023-05-05T11:29:09.882Z,57.20
2023-05-05T11:30:10.204Z,57.04
2023-05-05T11:31:10.006Z,55.87
2023-05-05T11:32:10.051Z,55.59
2023-05-05T11:33:09.868Z,55.37
2023-05-05T11:34:09.874Z,56.37
2023-05-05T11:35:09.905Z,56.46
2023-05-05T11:36:09.929Z,54.96
2023-05-05T11:37:09.847Z,54.89
2023-05-05T11:38:09.861Z,56.41
2023-05-05T11:39:09.848Z,54.45
2023-05-05T11:40:10.063Z,53.51
2023-05-05T11:41:09.840Z,54.29
2023-05-05T11:42:10.899Z,55.73
2023-05-05T11:43:09.804Z,55.57
2023-05-05T11:44:09.838Z,56.83
2023-05-05T11:45:09.783Z,56.85
2023-05-05T11:46:09.801Z,57.26
2023-05-05T11:47:09.813Z,57.05
2023-05-05T11:48:09.809Z,55.60
2023-05-05T11:49:09.759Z,55.74
2023-05-05T11:50:09.837Z,56.34
2023-05-05T11:51:09.734Z,55.79
2023-05-05T11:52:09.797Z,57.88
2023-05-05T11:53:09.750Z,57.54
2023-05-05T11:54:09.758Z,58.33
2023-05-05T11:55:09.713Z,57.29
2023-05-05T11:56:09.727Z,57.44
2023-05-05T11:57:09.708Z,57.27
2023-05-05T11:58:09.713Z,57.46
2023-05-05T11:59:09.775Z,57.18
2023-05-05T12:00:09.819Z,56.88
2023-05-05T12:01:10.453Z,57.20
2023-05-05T12:02:09.702Z,58.60
2023-05-05T12:03:09.747Z,57.56
2023-05-05T12:04:09.851Z,56.12
2023-05-05T12:05:09.682Z,55.73
2023-05-05T12:06:09.648Z,55.23
2023-05-05T12:07:09.629Z,56.09
2023-05-05T12:08:09.704Z,56.27
2023-05-05T12:09:09.645Z,54.99
2023-05-05T12:10:09.850Z,53.89
2023-05-05T12:11:09.649Z,55.60
2023-05-05T12:12:09.615Z,55.18
2023-05-05T12:13:09.674Z,55.80
2023-05-05T12:14:09.599Z,56.84
2023-05-05T12:15:09.795Z,55.78
2023-05-05T12:16:09.651Z,56.20
2023-05-05T12:17:09.594Z,56.57
2023-05-05T12:18:09.603Z,55.65
2023-05-05T12:19:09.552Z,56.32
2023-05-05T12:20:09.947Z,55.91
2023-05-05T12:21:09.548Z,55.48
2023-05-05T12:22:09.576Z,57.06
2023-05-05T12:23:09.542Z,55.11
2023-05-05T12:24:09.666Z,54.15
2023-05-05T12:25:09.570Z,54.48
2023-05-05T12:26:09.547Z,54.27
2023-05-05T12:27:09.591Z,55.41
2023-05-05T12:28:09.618Z,55.20
2023-05-05T12:29:09.499Z,56.92
2023-05-05T12:30:09.675Z,57.01
2023-05-05T12:31:09.566Z,55.90
2023-05-05T12:32:09.515Z,55.38
2023-05-05T12:33:09.476Z,55.23
2023-05-05T12:34:09.499Z,54.07
2023-05-05T12:35:09.450Z,54.89
2023-05-05T12:36:09.463Z,56.60
2023-05-05T12:37:09.455Z,57.29
2023-05-05T12:38:09.455Z,56.46
2023-05-05T12:39:09.423Z,58.47
2023-05-05T12:40:09.731Z,56.86
2023-05-05T12:41:09.420Z,58.20
2023-05-05T12:42:09.441Z,56.48
2023-05-05T12:43:09.398Z,56.40
2023-05-05T12:44:09.414Z,56.74
2023-05-05T12:45:09.394Z,57.77
2023-05-05T12:46:09.538Z,57.71
2023-05-05T12:47:09.366Z,57.21
2023-05-05T12:48:09.377Z,56.33
2023-05-05T12:49:09.359Z,57.76
2023-05-05T12:50:09.524Z,56.68
2023-05-05T12:51:09.344Z,57.02
2023-05-05T12:52:09.392Z,57.89